createdAt,value
2023-02-27T00:01:05.635Z,1.52
2023-02-27T00:03:33.309Z,1.27
2023-02-27T00:06:01.028Z,1.38
2023-02-27T00:08:28.734Z,1.40
2023-02-27T00:10:57.733Z,1.15
2023-02-27T00:13:25.383Z,1.10
2023-02-27T00:15:53.354Z,1.15
2023-02-27T00:18:21.046Z,1.30
2023-02-27T00:20:48.861Z,1.25
2023-02-27T00:23:16.641Z,1.20
2023-02-27T00:25:44.383Z,1.20
2023-02-27T00:28:13.393Z,1.20
2023-02-27T00:30:41.268Z,1.00
2023-02-27T00:33:09.014Z,1.17
2023-02-27T00:35:36.687Z,1.23
2023-02-27T00:38:04.399Z,1.30
2023-02-27T00:40:32.099Z,1.20
2023-02-27T00:42:59.770Z,1.40
2023-02-27T00:45:31.527Z,1.20
2023-02-27T00:47:59.219Z,1.20
2023-02-27T00:50:26.903Z,1.20
2023-02-27T00:52:54.556Z,1.38
2023-02-27T00:55:22.327Z,1.30
2023-02-27T00:57:50.046Z,1.20
2023-02-27T01:00:18.359Z,1.70
2023-02-27T01:02:47.461Z,1.50
2023-02-27T01:05:15.346Z,1.23
2023-02-27T01:07:43.078Z,1.35
2023-02-27T01:10:11.804Z,1.05
2023-02-27T01:12:39.490Z,1.27
2023-02-27T01:15:08.650Z,1.35
2023-02-27T01:17:36.518Z,1.40
2023-02-27T01:20:08.549Z,1.10
2023-02-27T01:22:36.238Z,1.30
2023-02-27T01:25:04.374Z,1.25
2023-02-27T01:27:32.070Z,1.30
2023-02-27T01:29:59.733Z,1.30
2023-02-27T01:32:27.529Z,1.40
2023-02-27T01:34:55.274Z,1.20
2023-02-27T01:37:24.239Z,1.20
2023-02-27T01:39:51.893Z,1.20
2023-02-27T01:42:21.320Z,1.20
2023-02-27T01:45:19.697Z,1.13
2023-02-27T01:47:48.712Z,1.23
2023-02-27T01:50:17.004Z,1.13
2023-02-27T01:52:46.549Z,1.20
2023-02-27T01:55:14.277Z,1.10
2023-02-27T01:57:42.106Z,1.10
2023-02-27T02:00:10.893Z,1.23
2023-02-27T02:02:45.973Z,1.20
2023-02-27T02:05:14.884Z,1.30
2023-02-27T02:07:42.891Z,1.20
2023-02-27T02:10:12.899Z,1.38
2023-02-27T02:12:40.790Z,1.15
2023-02-27T02:15:10.709Z,1.10
2023-02-27T02:17:45.292Z,1.10
2023-02-27T02:20:40.841Z,1.13
2023-02-27T02:23:32.698Z,1.40
2023-02-27T02:26:31.037Z,1.10
2023-02-27T02:29:46.056Z,1.17
2023-02-27T02:32:56.573Z,1.20
2023-02-27T02:35:43.926Z,1.20
2023-02-27T02:38:45.047Z,1.00
2023-02-27T02:41:15.420Z,1.13
2023-02-27T02:43:48.778Z,1.20
2023-02-27T02:46:22.979Z,1.30
2023-02-27T02:48:54.041Z,1.27
2023-02-27T02:51:27.851Z,1.10
2023-02-27T02:53:58.381Z,1.17
2023-02-27T02:56:27.353Z,1.40
2023-02-27T02:58:58.064Z,1.15
2023-02-27T03:01:28.427Z,1.10
2023-02-27T03:03:59.607Z,1.23
2023-02-27T03:06:30.697Z,1.23
2023-02-27T03:09:00.963Z,1.20
2023-02-27T03:11:32.321Z,1.10
2023-02-27T03:14:02.478Z,0.98
2023-02-27T03:16:32.443Z,1.20
2023-02-27T03:19:01.756Z,0.98
2023-02-27T03:21:32.865Z,1.30
2023-02-27T03:24:03.287Z,1.20
2023-02-27T03:26:33.892Z,0.98
2023-02-27T03:29:02.729Z,1.08
2023-02-27T03:31:33.999Z,1.40
2023-02-27T03:34:04.965Z,1.30
2023-02-27T03:36:37.540Z,1.10
2023-02-27T03:39:10.137Z,1.27
2023-02-27T03:41:38.659Z,1.17
2023-02-27T03:44:26.322Z,1.13
2023-02-27T03:46:54.178Z,1.02
2023-02-27T03:49:22.341Z,1.00
2023-02-27T03:51:50.516Z,1.13
2023-02-27T03:54:21.338Z,1.20
2023-02-27T03:56:53.814Z,1.20
2023-02-27T03:59:21.550Z,1.10
2023-02-27T04:01:52.463Z,1.20
2023-02-27T04:04:20.309Z,1.00
2023-02-27T04:07:31.792Z,1.10
2023-02-27T04:10:17.638Z,1.10
2023-02-27T04:13:00.293Z,1.42
2023-02-27T04:15:32.044Z,1.10
2023-02-27T04:18:02.692Z,1.27
2023-02-27T04:20:40.067Z,1.10
2023-02-27T04:23:08.926Z,1.23
2023-02-27T04:25:53.050Z,1.30
2023-02-27T04:28:25.862Z,1.17
2023-02-27T04:30:59.480Z,1.20
2023-02-27T04:33:33.755Z,1.20
2023-02-27T04:36:03.858Z,1.23
2023-02-27T04:38:33.776Z,1.10
2023-02-27T04:41:04.148Z,1.00
2023-02-27T04:43:31.864Z,1.17
2023-02-27T04:46:00.514Z,1.00
2023-02-27T04:48:29.452Z,1.02
2023-02-27T04:50:59.564Z,1.10
2023-02-27T04:53:28.988Z,1.10
2023-02-27T04:55:58.173Z,0.93
2023-02-27T04:58:28.624Z,1.10
2023-02-27T05:00:58.165Z,0.90
2023-02-27T05:03:26.826Z,1.10
2023-02-27T05:05:56.133Z,1.10
2023-02-27T05:08:27.248Z,0.90
2023-02-27T05:10:57.967Z,1.05
2023-02-27T05:13:28.825Z,1.13
2023-02-27T05:15:58.486Z,1.02
2023-02-27T05:18:26.829Z,1.10
2023-02-27T05:20:57.397Z,1.00
2023-02-27T05:23:30.282Z,0.98
2023-02-27T05:26:00.134Z,1.10
2023-02-27T05:28:34.002Z,1.17
2023-02-27T05:31:05.454Z,1.02
2023-02-27T05:33:34.246Z,1.10
2023-02-27T05:36:04.120Z,1.20
2023-02-27T05:38:34.811Z,1.00
2023-02-27T05:41:04.601Z,1.00
2023-02-27T05:43:35.897Z,1.00
2023-02-27T05:46:05.619Z,1.00
2023-02-27T05:48:34.879Z,1.05
2023-02-27T05:51:02.541Z,1.00
2023-02-27T05:53:32.876Z,1.23
2023-02-27T05:56:00.793Z,1.13
2023-02-27T05:58:29.563Z,1.00
2023-02-27T06:00:59.770Z,1.10
2023-02-27T06:03:28.262Z,1.10
2023-02-27T06:05:56.804Z,1.10
2023-02-27T06:08:25.422Z,1.10
2023-02-27T06:10:55.077Z,1.20
2023-02-27T06:13:23.028Z,1.10
2023-02-27T06:15:50.865Z,1.20
2023-02-27T06:18:20.091Z,1.20
2023-02-27T06:20:47.945Z,1.08
2023-02-27T06:23:15.770Z,1.10
2023-02-27T06:25:43.465Z,1.10
2023-02-27T06:28:11.350Z,1.00
2023-02-27T06:30:39.073Z,0.90
2023-02-27T06:33:06.830Z,1.13
2023-02-27T06:35:36.016Z,1.02
2023-02-27T06:38:04.929Z,1.20
2023-02-27T06:40:32.602Z,0.90
2023-02-27T06:43:00.260Z,0.95
2023-02-27T06:45:27.967Z,1.00
2023-02-27T06:47:55.657Z,1.25
2023-02-27T06:50:23.339Z,1.00
2023-02-27T06:52:52.373Z,1.00
2023-02-27T06:55:22.518Z,1.10
2023-02-27T06:57:50.207Z,1.00
2023-02-27T07:00:18.689Z,1.10
2023-02-27T07:02:46.719Z,1.00
2023-02-27T07:05:14.449Z,1.20
2023-02-27T07:07:42.135Z,1.20
2023-02-27T07:10:12.931Z,1.00
2023-02-27T07:12:40.669Z,1.00
2023-02-27T07:15:10.659Z,1.00
2023-02-27T07:17:38.752Z,1.15
2023-02-27T07:20:08.159Z,1.15
2023-02-27T07:22:35.876Z,1.10
2023-02-27T07:25:03.603Z,1.02
2023-02-27T07:27:32.630Z,0.80
2023-02-27T07:30:01.011Z,1.00
2023-02-27T07:32:28.720Z,1.20
2023-02-27T07:34:56.430Z,1.10
2023-02-27T07:37:25.482Z,1.15
2023-02-27T07:39:54.655Z,1.00
2023-02-27T07:42:22.332Z,0.90
2023-02-27T07:44:51.384Z,1.20
2023-02-27T07:47:19.131Z,1.10
2023-02-27T07:49:46.872Z,1.20
2023-02-27T07:52:14.544Z,1.00
2023-02-27T07:54:42.252Z,1.00
2023-02-27T07:57:09.972Z,0.95
2023-02-27T07:59:37.673Z,1.05
2023-02-27T08:02:07.484Z,1.00
2023-02-27T08:04:35.258Z,1.05
2023-02-27T08:07:03.065Z,1.00
2023-02-27T08:09:31.118Z,0.93
2023-02-27T08:11:58.866Z,1.08
2023-02-27T08:14:26.565Z,1.15
2023-02-27T08:16:54.275Z,1.00
2023-02-27T08:19:23.276Z,1.05
2023-02-27T08:21:50.974Z,1.20
2023-02-27T08:24:18.713Z,1.15
2023-02-27T08:26:46.401Z,1.10
2023-02-27T08:29:15.557Z,0.98
2023-02-27T08:31:44.933Z,0.90
2023-02-27T08:34:15.547Z,1.00
2023-02-27T08:36:44.559Z,1.08
2023-02-27T08:39:12.667Z,1.00
2023-02-27T08:41:40.603Z,0.90
2023-02-27T08:44:08.292Z,1.10
2023-02-27T08:46:35.995Z,0.93
2023-02-27T08:49:04.780Z,1.15
2023-02-27T08:51:32.518Z,1.02
2023-02-27T08:54:01.605Z,1.17
2023-02-27T08:56:29.609Z,1.02
2023-02-27T08:58:57.486Z,1.10
2023-02-27T09:01:27.338Z,1.00
2023-02-27T09:03:55.467Z,1.10
2023-02-27T09:06:25.213Z,1.20
2023-02-27T09:08:53.924Z,1.10
2023-02-27T09:11:23.016Z,1.10
2023-02-27T09:13:51.406Z,1.20
2023-02-27T09:16:19.238Z,1.17
2023-02-27T09:18:47.140Z,0.95
2023-02-27T09:21:14.881Z,0.95
2023-02-27T09:23:42.545Z,0.95
2023-02-27T09:26:10.450Z,1.10
2023-02-27T09:28:40.257Z,1.00
2023-02-27T09:31:08.495Z,0.95
2023-02-27T09:33:37.079Z,0.90
2023-02-27T09:36:05.563Z,1.00
2023-02-27T09:38:33.326Z,0.90
2023-02-27T09:41:01.222Z,1.00
2023-02-27T09:43:31.960Z,1.00
2023-02-27T09:46:01.444Z,1.02
2023-02-27T09:48:30.893Z,1.00
2023-02-27T09:50:58.672Z,1.00
2023-02-27T09:53:28.173Z,1.00
2023-02-27T09:55:55.926Z,0.98
2023-02-27T09:58:39.814Z,0.90
2023-02-27T10:01:10.693Z,1.00
2023-02-27T10:03:47.866Z,1.13
2023-02-27T10:06:21.389Z,0.98
2023-02-27T10:08:52.271Z,1.13
2023-02-27T10:11:22.587Z,0.90
2023-02-27T10:13:55.608Z,1.10
2023-02-27T10:16:24.759Z,1.02
2023-02-27T10:18:55.636Z,1.02
2023-02-27T10:21:25.074Z,1.08
2023-02-27T10:23:54.730Z,1.00
2023-02-27T10:26:23.182Z,0.80
2023-02-27T10:28:50.850Z,1.00
2023-02-27T10:31:21.140Z,1.00
2023-02-27T10:33:50.470Z,1.02
2023-02-27T10:36:32.482Z,1.00
2023-02-27T10:39:02.320Z,0.98
2023-02-27T10:41:30.428Z,0.90
2023-02-27T10:43:59.389Z,0.85
2023-02-27T10:46:28.372Z,1.20
2023-02-27T10:49:00.053Z,0.90
2023-02-27T10:51:30.287Z,1.00
2023-02-27T10:54:16.477Z,1.10
2023-02-27T10:56:45.491Z,1.00
2023-02-27T10:59:18.957Z,0.70
2023-02-27T11:01:48.305Z,1.00
2023-02-27T11:04:25.102Z,1.15
2023-02-27T11:06:53.121Z,0.98
2023-02-27T11:09:22.294Z,0.95
2023-02-27T11:11:50.045Z,0.90
2023-02-27T11:14:25.906Z,1.17
2023-02-27T11:16:54.788Z,0.95
2023-02-27T11:19:32.033Z,0.80
2023-02-27T11:22:04.298Z,0.80
2023-02-27T11:24:32.041Z,0.90
2023-02-27T11:27:00.286Z,0.88
2023-02-27T11:29:28.767Z,0.90
2023-02-27T11:31:57.310Z,0.90
2023-02-27T11:34:27.705Z,1.00
2023-02-27T11:36:59.078Z,0.88
2023-02-27T11:39:30.028Z,0.90
2023-02-27T11:41:58.921Z,0.98
2023-02-27T11:44:50.203Z,0.90
2023-02-27T11:47:17.116Z,0.93
2023-02-27T11:50:06.342Z,0.90
2023-02-27T11:52:37.759Z,0.90
2023-02-27T11:55:05.735Z,0.90
2023-02-27T11:57:34.605Z,0.98
2023-02-27T12:00:06.444Z,0.90
2023-02-27T12:02:44.499Z,1.00
2023-02-27T12:05:15.439Z,0.90
2023-02-27T12:07:45.797Z,0.82
2023-02-27T12:10:16.962Z,1.08
2023-02-27T12:12:46.315Z,0.90
2023-02-27T12:15:23.515Z,0.88
2023-02-27T12:17:52.984Z,0.90
2023-02-27T12:20:29.309Z,1.00
2023-02-27T12:22:58.338Z,0.80
2023-02-27T12:25:33.229Z,1.02
2023-02-27T12:28:03.591Z,0.80
2023-02-27T12:30:34.920Z,1.02
2023-02-27T12:33:03.474Z,0.90
2023-02-27T12:35:33.022Z,0.85
2023-02-27T12:38:02.311Z,0.85
2023-02-27T12:40:31.949Z,0.80
2023-02-27T12:43:06.607Z,0.80
2023-02-27T12:45:45.532Z,0.80
2023-02-27T12:48:19.134Z,0.75
2023-02-27T12:50:53.248Z,0.90
2023-02-27T12:53:31.992Z,0.95
2023-02-27T12:56:02.702Z,0.90
2023-02-27T12:58:36.326Z,0.90
2023-02-27T13:01:06.892Z,0.80
2023-02-27T13:03:36.306Z,0.90
2023-02-27T13:06:06.963Z,1.00
2023-02-27T13:09:09.396Z,0.82
2023-02-27T13:11:44.395Z,0.82
2023-02-27T13:14:17.828Z,0.90
2023-02-27T13:16:46.399Z,0.80
2023-02-27T13:19:15.681Z,0.77
2023-02-27T13:21:46.590Z,1.00
2023-02-27T13:24:26.039Z,0.88
2023-02-27T13:26:57.197Z,0.82
2023-02-27T13:29:27.851Z,0.80
2023-02-27T13:32:00.055Z,0.80
2023-02-27T13:34:30.440Z,0.90
2023-02-27T13:36:59.783Z,0.88
2023-02-27T13:39:57.104Z,0.73
2023-02-27T13:42:54.319Z,0.80
2023-02-27T13:45:47.918Z,0.77
2023-02-27T13:48:41.108Z,0.82
2023-02-27T13:51:54.000Z,0.90
2023-02-27T13:54:36.322Z,0.80
2023-02-27T13:57:19.782Z,0.85
2023-02-27T13:59:56.219Z,0.60
2023-02-27T14:02:32.756Z,0.80
2023-02-27T14:05:03.236Z,0.90
2023-02-27T14:07:33.385Z,0.80
2023-02-27T14:10:02.221Z,0.90
2023-02-27T14:12:43.910Z,0.98
2023-02-27T14:15:46.508Z,0.80
2023-02-27T14:18:47.914Z,0.80
2023-02-27T14:21:49.211Z,0.93
2023-02-27T14:24:16.925Z,0.70
2023-02-27T14:26:46.502Z,0.85
2023-02-27T14:29:17.850Z,0.75
2023-02-27T14:31:45.590Z,0.80
2023-02-27T14:34:14.714Z,0.77
2023-02-27T14:36:43.828Z,0.70
2023-02-27T14:39:23.222Z,0.90
2023-02-27T14:41:55.112Z,0.80
2023-02-27T14:44:24.955Z,0.88
2023-02-27T14:46:53.503Z,0.90
2023-02-27T14:49:21.820Z,0.80
2023-02-27T14:51:50.444Z,0.73
2023-02-27T14:54:19.182Z,0.80
2023-02-27T14:56:54.916Z,0.93
2023-02-27T14:59:24.674Z,0.75
2023-02-27T15:01:52.684Z,0.80
2023-02-27T15:04:21.213Z,0.70
2023-02-27T15:06:50.029Z,0.80
2023-02-27T15:09:22.063Z,0.63
2023-02-27T15:12:02.553Z,0.70
2023-02-27T15:14:34.548Z,0.70
2023-02-27T15:17:03.631Z,0.80
2023-02-27T15:19:31.983Z,0.70
2023-02-27T15:22:02.319Z,0.80
2023-02-27T15:24:43.811Z,0.75
2023-02-27T15:27:18.309Z,0.80
2023-02-27T15:29:50.366Z,0.80
2023-02-27T15:32:19.898Z,0.80
2023-02-27T15:34:47.575Z,0.80
2023-02-27T15:37:19.491Z,0.80
2023-02-27T15:39:47.205Z,0.80
2023-02-27T15:42:14.873Z,0.80
2023-02-27T15:44:44.075Z,0.60
2023-02-27T15:47:13.850Z,0.63
2023-02-27T15:49:41.490Z,0.65
2023-02-27T15:52:14.591Z,0.63
2023-02-27T15:54:47.185Z,0.70
2023-02-27T15:57:15.328Z,0.68
2023-02-27T15:59:43.399Z,0.80
2023-02-27T16:02:19.767Z,0.80
2023-02-27T16:04:47.609Z,0.70
2023-02-27T16:07:16.906Z,0.70
2023-02-27T16:09:46.263Z,0.70
2023-02-27T16:12:39.118Z,0.70
2023-02-27T16:15:21.557Z,0.75
2023-02-27T16:17:58.207Z,0.80
2023-02-27T16:20:40.837Z,0.80
2023-02-27T16:23:15.999Z,0.70
2023-02-27T16:25:46.784Z,0.70
2023-02-27T16:28:15.293Z,0.70
2023-02-27T16:30:43.009Z,0.57
2023-02-27T16:33:16.045Z,0.80
2023-02-27T16:35:43.796Z,0.75
2023-02-27T16:38:11.858Z,0.70
2023-02-27T16:40:39.655Z,0.80
2023-02-27T16:43:07.384Z,0.70
2023-02-27T16:45:35.169Z,0.68
2023-02-27T16:48:02.863Z,0.70
2023-02-27T16:50:34.436Z,0.80
2023-02-27T16:53:02.165Z,0.73
2023-02-27T16:55:31.076Z,0.70
2023-02-27T16:57:59.720Z,0.80
2023-02-27T17:00:27.531Z,0.80
2023-02-27T17:02:55.192Z,0.90
2023-02-27T17:05:24.082Z,0.70
2023-02-27T17:07:53.093Z,0.90
2023-02-27T17:10:24.435Z,0.65
2023-02-27T17:12:52.150Z,0.70
2023-02-27T17:15:19.897Z,0.70
2023-02-27T17:17:47.571Z,0.70
2023-02-27T17:20:15.369Z,0.80
2023-02-27T17:22:44.461Z,0.70
2023-02-27T17:25:13.850Z,0.77
2023-02-27T17:27:42.835Z,0.75
2023-02-27T17:30:11.727Z,0.80
2023-02-27T17:32:39.394Z,0.80
2023-02-27T17:35:07.530Z,0.77
2023-02-27T17:37:35.296Z,0.73
2023-02-27T17:40:04.545Z,0.90
2023-02-27T17:42:33.647Z,0.60
2023-02-27T17:45:03.379Z,0.60
2023-02-27T17:47:31.039Z,0.90
2023-02-27T17:49:58.788Z,0.70
2023-02-27T17:52:27.256Z,0.63
2023-02-27T17:54:55.527Z,0.70
2023-02-27T17:57:23.219Z,0.80
2023-02-27T17:59:52.298Z,0.60
2023-02-27T18:02:20.128Z,0.80
2023-02-27T18:04:48.152Z,0.90
2023-02-27T18:07:15.886Z,0.70
2023-02-27T18:09:45.908Z,0.70
2023-02-27T18:12:13.758Z,0.70
2023-02-27T18:14:41.473Z,0.80
2023-02-27T18:17:12.462Z,0.70
2023-02-27T18:19:41.500Z,0.68
2023-02-27T18:22:09.533Z,0.70
2023-02-27T18:24:37.785Z,0.73
2023-02-27T18:27:05.485Z,0.70
2023-02-27T18:29:33.244Z,0.70
2023-02-27T18:32:00.979Z,0.77
2023-02-27T18:34:30.199Z,0.82
2023-02-27T18:36:58.323Z,0.82
2023-02-27T18:39:26.036Z,0.75
2023-02-27T18:41:53.799Z,0.60
2023-02-27T18:44:21.500Z,0.70
2023-02-27T18:46:49.258Z,0.70
2023-02-27T18:49:16.988Z,0.60
2023-02-27T18:51:46.081Z,0.70
2023-02-27T18:54:13.880Z,0.98
2023-02-27T18:56:41.584Z,0.90
2023-02-27T18:59:09.271Z,0.70
2023-02-27T19:01:37.881Z,0.70
2023-02-27T19:04:06.573Z,0.80
2023-02-27T19:06:35.065Z,0.90
2023-02-27T19:09:04.859Z,0.75
2023-02-27T19:11:33.880Z,0.80
2023-02-27T19:14:01.944Z,0.70
2023-02-27T19:16:30.030Z,0.80
2023-02-27T19:18:58.071Z,0.70
2023-02-27T19:21:25.845Z,0.88
2023-02-27T19:23:53.844Z,0.90
2023-02-27T19:26:23.208Z,1.00
2023-02-27T19:28:51.523Z,0.73
2023-02-27T19:31:19.267Z,0.80
2023-02-27T19:33:47.004Z,0.70
2023-02-27T19:36:15.861Z,0.82
2023-02-27T19:38:43.553Z,0.90
2023-02-27T19:41:13.143Z,0.82
2023-02-27T19:43:42.265Z,0.70
2023-02-27T19:46:10.955Z,0.80
2023-02-27T19:48:38.663Z,0.70
2023-02-27T19:51:06.564Z,0.70
2023-02-27T19:53:35.553Z,0.80
2023-02-27T19:56:04.258Z,0.70
2023-02-27T19:58:33.380Z,0.82
2023-02-27T20:01:02.630Z,0.60
2023-02-27T20:03:30.611Z,0.80
2023-02-27T20:05:58.983Z,0.90
2023-02-27T20:08:26.682Z,0.82
2023-02-27T20:10:55.776Z,0.80
2023-02-27T20:13:23.536Z,0.70
2023-02-27T20:15:58.253Z,0.88
2023-02-27T20:18:29.720Z,0.80
2023-02-27T20:21:01.816Z,0.70
2023-02-27T20:23:29.594Z,0.80
2023-02-27T20:25:57.387Z,0.60
2023-02-27T20:28:25.118Z,0.80
2023-02-27T20:30:52.892Z,0.77
2023-02-27T20:33:20.680Z,0.80
2023-02-27T20:35:49.839Z,0.73
2023-02-27T20:38:19.833Z,0.90
2023-02-27T20:40:47.677Z,0.80
2023-02-27T20:43:15.413Z,0.70
2023-02-27T20:45:43.182Z,0.80
2023-02-27T20:48:10.871Z,0.80
2023-02-27T20:50:38.683Z,0.80
2023-02-27T20:53:07.779Z,0.70
2023-02-27T20:55:35.478Z,0.98
2023-02-27T20:58:03.315Z,0.93
2023-02-27T21:00:31.131Z,0.70
2023-02-27T21:03:00.783Z,0.80
2023-02-27T21:05:28.586Z,0.80
2023-02-27T21:07:56.246Z,0.90
2023-02-27T21:10:25.309Z,0.82
2023-02-27T21:12:53.186Z,1.00
2023-02-27T21:15:20.875Z,0.90
2023-02-27T21:17:48.711Z,0.60
2023-02-27T21:20:16.372Z,0.85
2023-02-27T21:22:44.209Z,0.70
2023-02-27T21:25:12.036Z,0.80
2023-02-27T21:27:41.074Z,0.90
2023-02-27T21:30:10.997Z,0.80
2023-02-27T21:32:38.693Z,0.90
2023-02-27T21:35:07.125Z,0.80
2023-02-27T21:37:34.880Z,0.80
2023-02-27T21:40:04.183Z,0.75
2023-02-27T21:42:31.950Z,0.75
2023-02-27T21:45:00.963Z,0.85
2023-02-27T21:47:29.981Z,0.65
2023-02-27T21:49:57.860Z,0.93
2023-02-27T21:52:25.561Z,0.75
2023-02-27T21:54:54.032Z,0.80
2023-02-27T21:57:22.931Z,0.85
2023-02-27T21:59:50.587Z,0.88
2023-02-27T22:02:19.679Z,0.80
2023-02-27T22:04:47.369Z,0.80
2023-02-27T22:07:15.052Z,0.90
2023-02-27T22:09:42.750Z,0.77
2023-02-27T22:12:10.441Z,0.80
2023-02-27T22:14:38.169Z,0.88
2023-02-27T22:17:05.835Z,0.80
2023-02-27T22:19:34.823Z,0.82
2023-02-27T22:22:02.488Z,0.80
2023-02-27T22:24:30.141Z,0.93
2023-02-27T22:26:57.962Z,0.90
2023-02-27T22:29:25.665Z,0.75
2023-02-27T22:31:53.509Z,0.80
2023-02-27T22:34:21.223Z,0.80
2023-02-27T22:36:52.394Z,0.90
2023-02-27T22:39:20.426Z,0.80
2023-02-27T22:41:48.085Z,0.77
2023-02-27T22:44:16.139Z,0.90
2023-02-27T22:46:44.744Z,0.85
2023-02-27T22:49:13.635Z,1.00
2023-02-27T22:51:41.336Z,0.93
2023-02-27T22:54:10.973Z,0.80
2023-02-27T22:56:38.843Z,0.80
2023-02-27T22:59:06.931Z,0.77
2023-02-27T23:01:35.675Z,1.00
2023-02-27T23:04:04.915Z,0.85
2023-02-27T23:06:33.575Z,0.90
2023-02-27T23:09:01.699Z,0.80
2023-02-27T23:11:31.011Z,0.70
2023-02-27T23:13:58.914Z,1.00
2023-02-27T23:16:26.763Z,0.70
2023-02-27T23:18:55.832Z,1.10
2023-02-27T23:21:24.860Z,1.00
2023-02-27T23:23:53.659Z,0.90
2023-02-27T23:26:21.365Z,0.95
2023-02-27T23:28:50.340Z,0.98
2023-02-27T23:31:18.049Z,0.98
2023-02-27T23:33:45.891Z,0.90
2023-02-27T23:36:13.736Z,0.98
2023-02-27T23:38:41.796Z,0.88
2023-02-27T23:41:10.201Z,1.00
2023-02-27T23:43:55.296Z,1.00
2023-02-27T23:46:24.321Z,1.10
2023-02-27T23:48:52.007Z,0.95
2023-02-27T23:51:19.649Z,0.88
2023-02-27T23:53:47.330Z,0.90
2023-02-27T23:56:16.165Z,0.90
2023-02-27T23:58:44.011Z,0.95
